Brazoria County Airport Angleton, Lake Jackson US
ICAO: KLBX
IATA: LBX
Category: Medium
Scheduled Services: No

Elevation: 25 ft
TransAlt. 18000 ft.

Airport Communications:
HOUSTON APP/DEP:134.45
ASOS:119.925
CLNC DEL:125.2
CTAF/UNICOM:123

KLBX Zoom In..

Runways:

(A) RW 17 length 7000 ft width 100 ft
ILS 109.10 / hdg 175

(B) RW 35 length 7000 ft width 100 ft
---- / hdg 355

Location; KLBX
Day. 25 / Time. 12.53 Zulu
* Altimeter: 30.00
* Temperature: 23° c. 73.4°f.
* Wind from: 000° Speed 00 kn.
Dewpoint: 21° c.
Visibility: 10 Statute Miles.
Clouds: Few 6500 ft.
Clouds: Overcast 7500 ft.

KLBX 251253Z AUTO 00000KT 10SM FEW065 OVC075 23/21 A3000 RMK AO2 SLP160 T02280211

Going to: --> -->


Wind - Calm.

 
 
jpsmedia worldairports.se 2020   terms of use